Time;durP1;ratioP1;P1;durP2;ratioP2;P2;SDS_P1;SDS_P2;PMS_P1;PMS_P2;Temp;Humidity;BMP_temperature;BMP_pressure;BME280_temperature;BME280_humidity;BME280_pressure;Samples;Min_cycle;Max_cycle;Signal;HPM_P1;HPM_P2
2023/01/06 00:00:36;;;;;;;2.90;1.40;;;;;;;13.66;62.16;98077.56;5057032;28;20190;-72
2023/01/06 00:03:02;;;;;;;1.43;1.30;;;;;;;13.72;62.09;98075.31;5065132;28;20600;-72
2023/01/06 00:05:28;;;;;;;1.73;1.40;;;;;;;13.71;62.07;98074.47;5055356;28;20175;-71
2023/01/06 00:07:54;;;;;;;2.53;1.67;;;;;;;13.71;62.08;98069.19;5063472;28;20420;-71
2023/01/06 00:10:19;;;;;;;3.30;1.50;;;;;;;13.66;62.27;98068.84;5056189;28;20198;-71
2023/01/06 00:12:46;;;;;;;3.03;1.37;;;;;;;13.65;62.14;98075.91;5060354;28;20205;-71
2023/01/06 00:15:11;;;;;;;3.70;2.13;;;;;;;13.70;61.84;98080.72;5055014;28;20639;-70
2023/01/06 00:17:37;;;;;;;1.90;1.40;;;;;;;13.62;62.06;98075.38;5057112;28;20421;-70
2023/01/06 00:20:03;;;;;;;3.30;1.40;;;;;;;13.64;62.15;98074.25;5064377;28;20814;-71
2023/01/06 00:22:29;;;;;;;2.10;1.53;;;;;;;13.66;62.17;98071.47;5054891;28;20295;-71
2023/01/06 00:24:54;;;;;;;1.77;1.30;;;;;;;13.72;62.02;98070.84;5063134;28;20423;-71
2023/01/06 00:27:20;;;;;;;2.50;1.30;;;;;;;13.71;62.11;98069.19;5055098;28;20199;-72
2023/01/06 00:29:47;;;;;;;1.50;1.20;;;;;;;13.76;61.59;98060.84;5059837;28;20194;-70
2023/01/06 00:32:13;;;;;;;1.60;1.43;;;;;;;13.76;61.63;98061.69;5055107;28;20241;-70
2023/01/06 00:34:38;;;;;;;2.07;1.77;;;;;;;13.80;61.37;98057.75;5054095;28;20941;-70
2023/01/06 00:37:04;;;;;;;2.00;1.67;;;;;;;13.78;61.73;98056.25;5063673;28;20261;-71
2023/01/06 00:39:29;;;;;;;2.93;1.50;;;;;;;13.78;61.67;98048.34;5054724;28;20186;-71
2023/01/06 00:42:03;;;;;;;3.17;1.50;;;;;;;13.80;61.60;98049.84;5065884;28;20223;-71
2023/01/06 00:44:34;;;;;;;1.70;1.60;;;;;;;13.79;61.74;98044.72;5054255;28;20213;-72
2023/01/06 00:47:00;;;;;;;1.50;1.40;;;;;;;13.82;61.21;98039.16;5061030;28;20413;-71
2023/01/06 00:49:26;;;;;;;1.73;1.40;;;;;;;13.79;61.28;98040.31;5059801;28;20489;-72
2023/01/06 00:51:51;;;;;;;2.70;1.60;;;;;;;13.81;61.11;98043.59;5058110;28;20445;-72
2023/01/06 00:54:17;;;;;;;1.60;1.40;;;;;;;13.74;61.36;98044.34;5053255;28;20182;-71
2023/01/06 00:56:45;;;;;;;1.63;1.23;;;;;;;13.79;61.04;98044.72;5055190;28;20265;-70
2023/01/06 00:59:12;;;;;;;2.40;0.90;;;;;;;13.73;61.08;98046.16;5057604;28;20175;-70
2023/01/06 01:01:38;;;;;;;2.20;1.20;;;;;;;13.60;61.39;98045.72;5057627;28;20421;-71
2023/01/06 01:04:03;;;;;;;1.60;1.40;;;;;;;13.67;61.33;98052.06;5059690;28;20441;-71
2023/01/06 01:06:29;;;;;;;2.93;1.50;;;;;;;13.69;61.56;98050.06;5056387;28;20499;-71
2023/01/06 01:08:56;;;;;;;2.10;1.43;;;;;;;13.69;61.49;98052.72;5052957;28;20194;-69
2023/01/06 01:14:06;;;;;;;2.63;1.33;;;;;;;13.72;61.24;98043.69;5058493;28;20827;-71
2023/01/06 01:16:31;;;;;;;2.53;1.50;;;;;;;13.70;61.39;98045.66;5052631;28;20430;-72
2023/01/06 01:18:57;;;;;;;5.30;1.60;;;;;;;13.69;61.37;98047.44;5064151;28;20182;-72
2023/01/06 01:21:22;;;;;;;2.07;1.43;;;;;;;13.71;61.13;98044.69;5062265;28;20178;-71
2023/01/06 01:23:48;;;;;;;1.30;1.20;;;;;;;13.72;61.07;98048.97;5056180;28;20199;-71
2023/01/06 01:26:13;;;;;;;2.63;1.50;;;;;;;13.66;61.29;98040.69;5052871;28;20273;-71
2023/01/06 01:28:39;;;;;;;2.83;1.60;;;;;;;13.67;60.90;98044.97;5055297;28;20183;-71
2023/01/06 01:31:04;;;;;;;1.97;1.50;;;;;;;13.67;61.24;98047.59;5056303;28;20248;-71
2023/01/06 01:33:37;;;;;;;1.83;1.20;;;;;;;13.63;61.26;98040.97;5078938;27;20534;-71
2023/01/06 01:36:06;;;;;;;2.13;1.40;;;;;;;13.62;61.45;98033.22;5064524;28;20811;-71
2023/01/06 01:38:31;;;;;;;3.20;1.97;;;;;;;13.57;61.45;98031.06;5064862;28;20178;-71
2023/01/06 01:40:57;;;;;;;2.87;1.80;;;;;;;13.60;61.59;98035.19;5068940;28;20431;-71
2023/01/06 01:43:22;;;;;;;2.20;1.93;;;;;;;13.58;61.68;98022.19;5071134;28;20605;-71
2023/01/06 01:45:52;;;;;;;2.23;1.30;;;;;;;13.59;61.63;98029.09;5067233;28;20261;-71
2023/01/06 01:48:25;;;;;;;4.20;1.30;;;;;;;13.57;61.73;98025.78;5063499;28;20187;-71
2023/01/06 01:50:53;;;;;;;1.67;1.40;;;;;;;13.56;61.77;98024.13;5073127;28;20421;-71
2023/01/06 01:53:22;;;;;;;3.10;1.50;;;;;;;13.56;61.68;98024.13;5065671;28;20472;-70
2023/01/06 01:55:49;;;;;;;1.73;1.63;;;;;;;13.55;61.64;98025.13;5073343;28;20471;-71
2023/01/06 01:58:18;;;;;;;2.60;1.70;;;;;;;13.55;61.96;98029.53;5068543;28;20429;-69
2023/01/06 02:00:44;;;;;;;1.40;1.20;;;;;;;13.55;62.07;98029.53;5066195;28;20427;-71
2023/01/06 02:03:11;;;;;;;1.40;1.20;;;;;;;13.51;61.84;98027.22;5065662;28;20449;-70
2023/01/06 02:05:39;;;;;;;2.10;1.10;;;;;;;13.53;62.22;98024.44;5061697;28;20258;-70
2023/01/06 02:08:14;;;;;;;2.10;1.20;;;;;;;13.59;61.86;98023.00;5066939;28;20425;-69
2023/01/06 02:10:39;;;;;;;1.57;1.47;;;;;;;13.59;62.00;98013.31;5061017;28;20965;-70
2023/01/06 02:13:04;;;;;;;1.80;1.70;;;;;;;13.60;62.00;98028.13;5067035;28;20461;-71
2023/01/06 02:15:31;;;;;;;2.60;2.33;;;;;;;13.59;62.14;98013.31;5066595;28;20187;-71
2023/01/06 02:18:21;;;;;;;6.10;4.80;;;;;;;13.58;62.08;98019.56;5065382;28;20186;-73
2023/01/06 02:21:08;;;;;;;1.90;1.70;;;;;;;13.60;61.91;98014.97;5065691;28;20421;-71
2023/01/06 02:23:56;;;;;;;2.10;1.67;;;;;;;13.61;61.95;98016.59;5062187;28;20993;-70
2023/01/06 02:26:46;;;;;;;1.87;1.20;;;;;;;13.62;61.60;98007.72;5065753;28;20816;-69
2023/01/06 02:29:50;;;;;;;5.13;1.33;;;;;;;13.64;61.68;98000.50;5064006;28;20420;-71
2023/01/06 02:32:15;;;;;;;2.97;1.53;;;;;;;13.70;61.70;98003.50;5063966;28;20825;-71
2023/01/06 02:35:08;;;;;;;2.03;1.40;;;;;;;13.66;61.77;98003.81;5066778;28;20429;-70
2023/01/06 02:37:53;;;;;;;2.43;1.60;;;;;;;13.69;61.80;98001.84;5065607;28;20187;-71
2023/01/06 02:40:37;;;;;;;1.50;1.20;;;;;;;13.66;61.67;97990.63;5061916;28;20416;-69
2023/01/06 02:43:35;;;;;;;1.90;1.50;;;;;;;13.61;61.62;97984.97;5066430;28;20441;-71
2023/01/06 02:46:12;;;;;;;1.40;1.20;;;;;;;13.66;62.01;98008.25;5052884;28;20808;-71
2023/01/06 02:48:52;;;;;;;3.50;1.40;;;;;;;13.67;61.55;98002.81;5052779;28;20941;-71
2023/01/06 02:51:30;;;;;;;2.43;1.23;;;;;;;13.66;61.82;97998.53;5052532;28;20410;-71
2023/01/06 02:54:16;;;;;;;1.90;1.30;;;;;;;13.66;61.85;98000.34;5051880;28;20445;-71
2023/01/06 02:56:45;;;;;;;1.40;1.30;;;;;;;13.66;61.99;97997.72;5043267;28;20512;-71
2023/01/06 02:59:24;;;;;;;1.70;1.27;;;;;;;13.69;62.18;98004.47;5051945;28;20787;-72
2023/01/06 03:01:53;;;;;;;2.43;1.50;;;;;;;13.61;61.90;97995.53;5051850;28;20444;-71
2023/01/06 03:04:24;;;;;;;1.57;1.37;;;;;;;13.52;62.33;97991.16;5035175;28;20430;-70
2023/01/06 03:06:51;;;;;;;2.10;1.30;;;;;;;13.56;62.25;97991.69;5051445;28;20425;-70
2023/01/06 03:09:19;;;;;;;2.53;1.47;;;;;;;13.59;62.19;97997.50;5051624;28;20426;-71
2023/01/06 03:11:48;;;;;;;1.77;1.57;;;;;;;13.60;62.01;97996.53;5061315;28;20953;-71
2023/01/06 03:14:34;;;;;;;2.17;1.33;;;;;;;13.63;61.93;97993.56;5054786;28;20789;-70
2023/01/06 03:16:59;;;;;;;1.40;1.17;;;;;;;13.56;62.13;97982.00;5052317;28;20916;-71
2023/01/06 03:19:25;;;;;;;2.27;1.30;;;;;;;13.60;62.10;97979.88;5059213;28;20428;-71
2023/01/06 03:21:51;;;;;;;2.60;1.00;;;;;;;13.58;62.24;97974.78;5052583;28;20657;-71
2023/01/06 03:24:16;;;;;;;1.60;1.37;;;;;;;13.59;61.98;97971.16;5051257;28;20183;-71
2023/01/06 03:26:43;;;;;;;1.50;1.27;;;;;;;13.61;61.95;97979.72;5052077;28;20194;-70
2023/01/06 03:29:11;;;;;;;1.43;1.10;;;;;;;13.63;61.59;97975.13;5047745;28;20183;-72
2023/01/06 03:31:48;;;;;;;1.13;1.03;;;;;;;13.56;62.09;97971.47;5051028;28;20469;-71
2023/01/06 03:34:32;;;;;;;1.40;1.30;;;;;;;13.56;61.85;97976.72;5051234;28;20440;-71
2023/01/06 03:36:59;;;;;;;2.03;1.30;;;;;;;13.54;61.82;97969.97;5051667;28;20433;-71
2023/01/06 03:39:34;;;;;;;1.43;1.33;;;;;;;13.48;61.83;97974.84;5047497;28;20542;-72
2023/01/06 03:45:20;;;;;;;1.80;1.60;;;;;;;13.39;61.70;97978.38;5051209;28;20492;-71
2023/01/06 03:47:56;;;;;;;1.87;1.50;;;;;;;13.42;61.50;97985.97;5050172;28;20913;-71
2023/01/06 03:50:43;;;;;;;2.63;1.63;;;;;;;13.35;61.81;97990.19;5057270;28;20433;-71
2023/01/06 03:53:16;;;;;;;1.80;1.30;;;;;;;13.36;62.05;97992.66;5048327;28;20472;-70
2023/01/06 03:55:45;;;;;;;1.20;1.00;;;;;;;13.36;61.75;97986.56;5051015;28;20905;-71
2023/01/06 03:58:11;;;;;;;2.70;1.20;;;;;;;13.32;61.67;97985.19;5047300;28;20506;-71
2023/01/06 04:00:37;;;;;;;1.47;1.20;;;;;;;13.31;61.61;97983.53;5050043;28;20433;-72
2023/01/06 04:03:07;;;;;;;1.30;1.20;;;;;;;13.25;61.57;97979.72;5048834;28;20203;-70
2023/01/06 04:05:32;;;;;;;2.43;1.23;;;;;;;13.20;61.55;97992.50;5025499;28;20186;-71
2023/01/06 04:07:58;;;;;;;2.70;1.37;;;;;;;13.13;61.79;97988.81;5060037;28;20522;-70
2023/01/06 04:10:23;;;;;;;1.97;1.20;;;;;;;13.09;61.87;97990.09;5068991;28;20183;-71
2023/01/06 04:12:49;;;;;;;1.40;1.30;;;;;;;13.04;61.91;97988.72;5069825;28;20202;-70
2023/01/06 04:15:17;;;;;;;2.13;1.40;;;;;;;12.95;62.14;97986.16;5052221;28;20179;-70
2023/01/06 04:17:43;;;;;;;1.60;1.40;;;;;;;12.92;62.39;97979.41;5061875;28;20182;-70
2023/01/06 04:20:12;;;;;;;2.57;1.33;;;;;;;12.93;62.49;97972.31;5060132;28;21157;-71
2023/01/06 04:22:37;;;;;;;1.33;1.20;;;;;;;12.88;62.65;97970.13;5058163;28;20480;-71
2023/01/06 04:25:03;;;;;;;4.83;1.70;;;;;;;12.91;62.36;97969.84;5053131;28;20486;-70
2023/01/06 04:27:28;;;;;;;2.70;2.27;;;;;;;12.92;62.50;97968.88;5061981;28;20186;-70
2023/01/06 04:29:54;;;;;;;3.00;2.33;;;;;;;12.88;62.31;97963.09;5069195;28;20189;-69
2023/01/06 04:32:19;;;;;;;2.33;2.00;;;;;;;12.90;62.58;97960.28;5056373;28;20677;-69
2023/01/06 04:34:45;;;;;;;5.30;2.50;;;;;;;12.84;62.06;97950.38;5050768;28;20698;-70
2023/01/06 04:37:10;;;;;;;2.70;2.50;;;;;;;12.74;62.48;97963.59;5048169;28;20187;-70
2023/01/06 04:39:35;;;;;;;3.07;2.50;;;;;;;12.74;62.20;97964.41;5060704;28;20273;-71
2023/01/06 04:42:01;;;;;;;4.43;2.63;;;;;;;12.75;62.13;97952.09;5068222;28;20183;-71
2023/01/06 04:44:26;;;;;;;3.10;2.50;;;;;;;12.73;62.30;97959.31;5059090;28;20182;-69
2023/01/06 04:46:52;;;;;;;2.97;2.40;;;;;;;12.59;62.40;97950.13;5056994;28;20206;-71
2023/01/06 04:49:17;;;;;;;3.50;2.80;;;;;;;12.58;62.64;97956.34;5051836;28;20270;-70
2023/01/06 04:51:43;;;;;;;2.70;2.47;;;;;;;12.58;62.38;97951.09;5064528;28;20643;-70
2023/01/06 04:54:08;;;;;;;4.77;2.73;;;;;;;12.44;62.39;97949.75;5061271;28;20255;-71
2023/01/06 04:56:34;;;;;;;2.73;2.53;;;;;;;12.50;62.74;97948.34;5051763;28;20189;-71
2023/01/06 04:58:59;;;;;;;4.07;2.33;;;;;;;12.58;63.24;97951.91;5064984;28;20214;-72
2023/01/06 05:01:26;;;;;;;2.63;1.67;;;;;;;12.64;63.17;97957.56;5059351;28;20274;-71
2023/01/06 05:03:51;;;;;;;2.83;2.50;;;;;;;12.51;62.98;97947.38;5059042;28;20199;-70
2023/01/06 05:06:17;;;;;;;3.43;2.70;;;;;;;12.50;63.10;97948.34;5050992;28;20440;-71
2023/01/06 05:08:43;;;;;;;3.10;2.83;;;;;;;12.48;63.41;97953.75;5066303;28;20600;-70
2023/01/06 05:11:19;;;;;;;4.30;3.87;;;;;;;12.46;63.74;97945.19;5058103;28;20943;-71
2023/01/06 05:13:45;;;;;;;4.07;3.67;;;;;;;12.49;63.55;97944.91;5059476;28;20237;-71
2023/01/06 05:16:16;;;;;;;3.10;2.50;;;;;;;12.42;64.10;97943.81;5063749;28;20431;-71
2023/01/06 05:18:42;;;;;;;3.50;3.13;;;;;;;12.44;63.61;97934.84;5056047;28;20183;-71
2023/01/06 05:21:07;;;;;;;2.47;2.27;;;;;;;12.52;64.15;97952.50;5058758;28;20431;-70
2023/01/06 05:23:33;;;;;;;2.90;2.30;;;;;;;12.57;63.82;97949.44;5061342;28;20205;-71
2023/01/06 05:25:58;;;;;;;2.60;1.63;;;;;;;12.62;63.80;97941.91;5062734;28;20252;-70
2023/01/06 05:28:24;;;;;;;2.53;2.10;;;;;;;12.63;63.93;97946.19;5051022;28;20186;-70
2023/01/06 05:30:49;;;;;;;1.93;1.73;;;;;;;12.68;63.58;97945.75;5061491;28;20260;-70
2023/01/06 05:33:15;;;;;;;2.00;1.90;;;;;;;12.69;63.63;97945.63;5062471;28;20738;-71
2023/01/06 05:35:40;;;;;;;2.60;2.07;;;;;;;12.74;63.56;97935.47;5050103;28;20345;-70
2023/01/06 05:38:06;;;;;;;3.63;1.90;;;;;;;12.69;63.17;97943.00;5058048;28;20656;-69
2023/01/06 05:40:33;;;;;;;3.20;2.00;;;;;;;12.76;63.16;97932.72;5054624;28;20210;-70
2023/01/06 05:42:58;;;;;;;1.80;1.60;;;;;;;12.79;63.26;97931.56;5060293;28;20226;-71
2023/01/06 05:45:24;;;;;;;2.07;1.90;;;;;;;12.75;63.38;97933.69;5066119;28;20429;-71
2023/01/06 05:47:50;;;;;;;2.20;1.70;;;;;;;12.80;63.22;97943.75;5059392;28;20198;-70
2023/01/06 05:50:16;;;;;;;2.60;2.30;;;;;;;12.85;62.84;97944.16;5059277;28;20183;-69
2023/01/06 05:52:42;;;;;;;3.53;2.70;;;;;;;12.75;63.09;97952.91;5058623;28;20462;-70
2023/01/06 05:55:07;;;;;;;2.67;2.27;;;;;;;12.73;62.87;97938.25;5065529;28;20609;-71
2023/01/06 05:57:34;;;;;;;2.60;2.40;;;;;;;12.84;62.84;97942.50;5065295;28;20190;-71
2023/01/06 06:00:00;;;;;;;3.20;2.10;;;;;;;12.88;62.82;97941.19;5051685;28;20305;-71
2023/01/06 06:02:25;;;;;;;2.40;1.87;;;;;;;12.81;62.91;97934.88;5065280;28;22047;-71
2023/01/06 06:04:51;;;;;;;2.10;1.90;;;;;;;12.87;62.62;97934.28;5041566;28;20207;-71
2023/01/06 06:07:16;;;;;;;2.00;1.90;;;;;;;12.96;62.69;97937.81;5047312;28;20214;-71
2023/01/06 06:09:42;;;;;;;3.33;2.00;;;;;;;12.89;62.42;97932.34;5053748;28;20186;-70
2023/01/06 06:12:07;;;;;;;2.10;1.50;;;;;;;12.86;63.04;97935.25;5052380;28;20210;-70
2023/01/06 06:14:33;;;;;;;2.47;1.80;;;;;;;12.78;62.80;97946.53;5045524;28;20601;-70
2023/01/06 06:16:58;;;;;;;2.10;2.00;;;;;;;12.86;62.89;97944.00;5049625;28;20267;-71
2023/01/06 06:19:24;;;;;;;2.50;2.30;;;;;;;12.87;62.88;97944.81;5050522;28;20229;-70
2023/01/06 06:21:49;;;;;;;2.60;2.40;;;;;;;12.92;62.63;97945.19;5062044;28;20183;-70
2023/01/06 06:24:15;;;;;;;2.20;2.00;;;;;;;12.92;62.70;97947.00;5053425;28;20256;-70
2023/01/06 06:26:40;;;;;;;1.80;1.70;;;;;;;12.93;62.93;97948.63;5053462;28;20383;-70
2023/01/06 06:29:06;;;;;;;1.73;1.60;;;;;;;12.93;62.52;97956.53;5053712;28;20190;-70
2023/01/06 06:31:32;;;;;;;2.60;1.70;;;;;;;12.93;62.29;97959.16;5048157;28;20249;-70
2023/01/06 06:33:59;;;;;;;1.73;1.30;;;;;;;12.93;62.35;97960.00;5053286;28;20457;-71
2023/01/06 06:36:25;;;;;;;4.07;1.60;;;;;;;12.93;62.75;97960.00;5053133;28;20572;-70
2023/01/06 06:38:52;;;;;;;2.20;1.40;;;;;;;12.95;62.54;97963.31;5052315;28;20417;-70
2023/01/06 06:41:18;;;;;;;2.73;1.90;;;;;;;12.94;62.67;97966.94;5056198;28;20413;-70
2023/01/06 06:43:44;;;;;;;1.80;1.30;;;;;;;12.96;62.95;97964.13;5052495;28;20525;-70
2023/01/06 06:46:09;;;;;;;1.63;1.53;;;;;;;12.96;62.48;97964.13;5052413;28;20940;-70
2023/01/06 06:48:35;;;;;;;1.50;1.40;;;;;;;12.96;62.72;97953.63;5056716;28;20273;-71
2023/01/06 06:51:03;;;;;;;2.23;1.60;;;;;;;12.94;62.72;97945.88;5060508;28;20180;-70
2023/01/06 06:53:29;;;;;;;1.97;1.70;;;;;;;12.94;62.97;97959.03;5053010;28;20203;-71
2023/01/06 06:55:55;;;;;;;1.40;1.30;;;;;;;12.89;62.67;97964.75;5053218;28;20854;-71
2023/01/06 06:58:21;;;;;;;1.60;1.43;;;;;;;12.87;62.71;97966.69;5052701;28;20179;-71
2023/01/06 07:00:46;;;;;;;1.83;1.60;;;;;;;12.91;63.00;97961.94;5049352;28;20426;-71
2023/01/06 07:03:12;;;;;;;2.30;2.00;;;;;;;12.96;62.58;97970.25;5052867;28;20445;-71
2023/01/06 07:05:37;;;;;;;3.60;3.10;;;;;;;12.96;62.46;97964.97;5053327;28;20661;-71
2023/01/06 07:08:03;;;;;;;3.50;3.20;;;;;;;13.01;62.53;97962.72;5051709;28;20179;-71
2023/01/06 07:10:29;;;;;;;5.17;3.23;;;;;;;13.05;62.18;97964.06;5052726;28;20233;-71
2023/01/06 07:12:54;;;;;;;3.47;2.53;;;;;;;13.06;62.32;97968.38;5051192;28;20241;-71
2023/01/06 07:15:20;;;;;;;2.60;2.30;;;;;;;13.03;62.13;97973.09;5050636;28;20207;-71
2023/01/06 07:17:45;;;;;;;3.13;1.50;;;;;;;13.00;62.37;97976.03;5049546;28;20278;-72
2023/01/06 07:20:10;;;;;;;1.60;1.50;;;;;;;13.05;61.95;97976.38;5051937;28;20261;-70
2023/01/06 07:22:37;;;;;;;2.00;1.60;;;;;;;13.10;62.21;97982.03;5052905;28;20730;-70
2023/01/06 07:25:04;;;;;;;1.90;1.60;;;;;;;13.09;62.11;97979.56;5051217;28;20209;-70
2023/01/06 07:27:30;;;;;;;1.93;1.60;;;;;;;13.08;62.11;97981.38;5051778;28;20545;-71
2023/01/06 07:29:55;;;;;;;2.40;1.60;;;;;;;13.10;62.12;97987.31;5052027;28;20525;-70
2023/01/06 07:32:21;;;;;;;1.57;1.43;;;;;;;13.11;62.43;97990.75;5051921;28;20294;-71
2023/01/06 07:34:46;;;;;;;2.07;1.77;;;;;;;13.15;62.04;97989.50;5051274;28;20690;-71
2023/01/06 07:37:12;;;;;;;2.27;1.93;;;;;;;13.17;62.09;97990.97;5051926;28;20662;-71
2023/01/06 07:39:37;;;;;;;2.80;1.60;;;;;;;13.19;62.07;97986.41;5052166;28;20537;-70
2023/01/06 07:42:03;;;;;;;2.03;1.80;;;;;;;13.20;62.29;97995.97;5050225;28;20187;-71
2023/01/06 07:44:28;;;;;;;2.30;1.63;;;;;;;13.20;62.14;97997.78;5037625;28;20240;-71
2023/01/06 07:46:53;;;;;;;2.03;1.20;;;;;;;13.20;62.26;98005.69;5031978;28;20190;-71
2023/01/06 07:49:19;;;;;;;1.40;1.27;;;;;;;13.23;62.81;98002.75;5022851;28;20643;-71
2023/01/06 07:51:44;;;;;;;2.60;1.20;;;;;;;13.23;62.99;98005.38;5030619;28;20219;-71
2023/01/06 07:54:10;;;;;;;2.07;1.30;;;;;;;13.28;63.04;98008.38;5031026;28;20238;-72
2023/01/06 07:56:35;;;;;;;2.90;1.40;;;;;;;13.30;63.06;98014.31;5046265;28;20195;-71
2023/01/06 07:59:01;;;;;;;3.27;1.30;;;;;;;13.34;63.39;98017.47;5040373;28;20183;-72
2023/01/06 08:01:26;;;;;;;1.17;0.90;;;;;;;13.36;63.45;98018.97;5036242;28;20266;-73
2023/01/06 08:03:52;;;;;;;1.20;1.10;;;;;;;13.37;63.48;98010.09;5045781;28;20227;-71
2023/01/06 08:06:17;;;;;;;2.37;1.20;;;;;;;13.41;63.43;98013.31;5040291;28;20219;-71
2023/01/06 08:08:42;;;;;;;2.80;1.10;;;;;;;13.43;63.70;98024.50;5047735;28;20207;-72
2023/01/06 08:11:12;;;;;;;1.53;1.10;;;;;;;13.47;63.57;98022.41;5047968;28;20241;-70
2023/01/06 08:13:38;;;;;;;1.20;0.90;;;;;;;13.46;63.85;98028.66;5044244;28;20587;-71
2023/01/06 08:16:05;;;;;;;1.40;1.20;;;;;;;13.48;64.09;98026.72;5040259;28;20431;-72
2023/01/06 08:18:30;;;;;;;1.60;1.30;;;;;;;13.51;63.78;98032.50;5039317;28;20263;-71
2023/01/06 08:21:04;;;;;;;1.43;1.30;;;;;;;13.52;63.93;98031.53;5046078;28;20519;-72
2023/01/06 08:23:30;;;;;;;1.93;1.50;;;;;;;13.50;64.04;98033.47;5037937;28;20210;-72
2023/01/06 08:26:12;;;;;;;1.77;1.67;;;;;;;13.51;64.02;98031.66;5049077;28;20413;-71
2023/01/06 08:28:38;;;;;;;6.80;4.10;;;;;;;13.54;64.10;98031.34;5038560;28;20187;-71
2023/01/06 08:31:03;;;;;;;2.40;1.80;;;;;;;13.51;64.33;98042.19;5042458;28;20986;-70
2023/01/06 08:33:29;;;;;;;2.07;1.60;;;;;;;13.51;64.33;98048.28;5039147;28;20462;-71
2023/01/06 08:35:58;;;;;;;2.20;2.00;;;;;;;13.49;64.79;98044.13;5044819;28;20194;-74
2023/01/06 08:38:24;;;;;;;2.03;1.70;;;;;;;13.48;65.06;98055.69;5040639;28;20590;-71
2023/01/06 08:40:53;;;;;;;1.43;1.33;;;;;;;13.44;65.66;98051.69;5041493;28;20439;-71
2023/01/06 08:43:18;;;;;;;2.47;1.47;;;;;;;13.47;65.92;98054.00;5043218;28;20200;-70
2023/01/06 08:45:44;;;;;;;1.30;1.20;;;;;;;13.48;65.71;98053.03;5045089;28;20999;-71
2023/01/06 08:48:10;;;;;;;2.47;1.30;;;;;;;13.48;66.13;98047.78;5041481;28;20254;-71
2023/01/06 08:50:37;;;;;;;1.23;1.10;;;;;;;13.48;66.48;98048.59;5047806;28;20190;-72
2023/01/06 08:53:03;;;;;;;1.77;1.10;;;;;;;13.48;66.25;98042.50;5039881;28;20214;-70
2023/01/06 08:55:28;;;;;;;1.40;1.30;;;;;;;13.49;66.83;98054.66;5048785;28;20524;-71
2023/01/06 08:57:54;;;;;;;3.80;1.13;;;;;;;13.48;66.45;98050.41;5041362;28;20262;-71
2023/01/06 09:00:19;;;;;;;1.17;1.07;;;;;;;13.43;66.30;98066.63;5046575;28;20179;-70
2023/01/06 09:02:44;;;;;;;0.90;0.80;;;;;;;13.38;66.61;98068.88;5044425;28;20591;-71
2023/01/06 09:05:10;;;;;;;1.03;0.93;;;;;;;13.34;66.49;98062.22;5039381;28;20188;-72
2023/01/06 09:07:35;;;;;;;0.93;0.80;;;;;;;13.37;66.66;98068.03;5047067;28;20179;-72
2023/01/06 09:10:01;;;;;;;1.20;0.93;;;;;;;13.41;67.10;98080.94;5043172;28;20175;-72
2023/01/06 09:12:26;;;;;;;1.07;0.97;;;;;;;13.41;66.65;98073.88;5045626;28;20219;-70
2023/01/06 09:14:52;;;;;;;1.57;1.10;;;;;;;13.38;66.51;98079.41;5036497;28;20184;-75
2023/01/06 09:17:17;;;;;;;1.10;0.90;;;;;;;13.41;66.26;98086.19;5040528;28;20183;-74
2023/01/06 09:19:43;;;;;;;1.00;0.70;;;;;;;13.41;66.15;98083.56;5044378;28;20217;-73
2023/01/06 09:22:08;;;;;;;2.93;1.20;;;;;;;13.39;65.98;98090.75;5047407;28;20199;-70
2023/01/06 09:24:33;;;;;;;2.30;1.30;;;;;;;13.41;65.74;98089.66;5043353;28;20211;-73
2023/01/06 09:26:59;;;;;;;2.03;0.90;;;;;;;13.41;65.63;98088.81;5044572;28;20241;-72
2023/01/06 09:29:24;;;;;;;1.10;0.90;;;;;;;13.39;65.62;98080.22;5044740;28;20198;-71
2023/01/06 09:31:50;;;;;;;2.17;0.70;;;;;;;13.42;65.52;98085.22;5038911;28;20697;-71
2023/01/06 09:34:15;;;;;;;1.40;0.80;;;;;;;13.50;65.68;98095.81;5035908;28;20238;-72
2023/01/06 09:36:41;;;;;;;1.60;0.70;;;;;;;13.52;64.86;98091.25;5032092;28;20526;-72
2023/01/06 09:39:06;;;;;;;1.63;0.80;;;;;;;13.55;64.80;98093.59;5035417;28;20192;-73
2023/01/06 09:42:12;;;;;;;1.70;1.20;;;;;;;13.62;65.05;98089.38;5036473;28;20186;-72
2023/01/06 09:44:57;;;;;;;2.50;1.30;;;;;;;13.75;64.48;98101.34;5037852;28;20184;-72
2023/01/06 09:47:36;;;;;;;1.20;1.10;;;;;;;13.79;63.97;98086.88;5027191;28;20906;-72
2023/01/06 09:50:16;;;;;;;1.70;1.17;;;;;;;13.90;63.61;98094.56;5042326;28;20433;-72
2023/01/06 09:52:51;;;;;;;2.23;1.17;;;;;;;14.05;62.98;98101.94;5028395;28;20511;-73
2023/01/06 09:55:23;;;;;;;1.67;1.10;;;;;;;14.15;61.92;98086.84;5031577;28;20533;-72
2023/01/06 09:57:52;;;;;;;1.57;0.90;;;;;;;14.35;62.18;98082.22;5033271;28;20913;-72
2023/01/06 10:00:45;;;;;;;1.10;0.90;;;;;;;14.54;61.44;98089.09;5033379;28;20426;-73
2023/01/06 10:03:24;;;;;;;1.17;0.93;;;;;;;15.23;60.57;98090.09;5036710;28;20446;-73
2023/01/06 10:06:04;;;;;;;1.20;0.70;;;;;;;15.49;59.08;98090.81;5038105;28;20766;-72
2023/01/06 10:08:54;;;;;;;1.50;0.80;;;;;;;15.61;57.89;98090.50;5037286;28;20453;-72
2023/01/06 10:11:29;;;;;;;5.37;0.70;;;;;;;15.65;57.73;98079.44;5035041;28;20941;-70
2023/01/06 10:14:07;;;;;;;1.27;0.80;;;;;;;15.78;56.68;98078.94;5035605;28;20470;-72
2023/01/06 10:16:55;;;;;;;1.20;0.80;;;;;;;15.96;56.39;98070.88;5036018;28;20440;-70
2023/01/06 10:19:58;;;;;;;1.10;0.70;;;;;;;16.03;55.97;98076.34;5036425;28;20418;-73
2023/01/06 10:22:42;;;;;;;0.90;0.70;;;;;;;15.97;54.14;98067.25;5040261;28;20421;-73
2023/01/06 10:25:22;;;;;;;1.37;0.90;;;;;;;15.95;54.53;98052.56;5040503;28;20426;-72
2023/01/06 10:28:01;;;;;;;1.43;0.80;;;;;;;15.91;55.00;98070.56;5041308;28;20475;-73
2023/01/06 10:30:33;;;;;;;1.10;0.70;;;;;;;15.84;54.41;98048.38;5033920;28;20438;-72
2023/01/06 10:32:58;;;;;;;1.00;0.87;;;;;;;15.74;53.54;98045.94;5040495;28;20462;-72
2023/01/06 10:35:25;;;;;;;0.80;0.60;;;;;;;15.70;53.27;98041.94;5035549;28;20508;-73
2023/01/06 10:37:52;;;;;;;0.80;0.50;;;;;;;15.73;53.53;98038.97;5034309;28;21933;-72
2023/01/06 10:40:21;;;;;;;0.80;0.50;;;;;;;15.84;53.13;98027.25;5035694;28;20424;-71
2023/01/06 10:42:56;;;;;;;0.90;0.50;;;;;;;15.96;52.70;98022.47;5036758;28;20454;-72
2023/01/06 10:45:32;;;;;;;0.90;0.50;;;;;;;16.10;52.65;98024.47;5037747;28;20458;-71
2023/01/06 10:47:59;;;;;;;1.00;0.67;;;;;;;16.55;51.45;98003.69;5032736;28;20434;-72
2023/01/06 10:50:25;;;;;;;1.00;0.50;;;;;;;16.46;50.20;98001.22;5038725;28;20492;-72
2023/01/06 10:52:51;;;;;;;0.87;0.50;;;;;;;17.03;50.10;98003.63;5038188;28;20473;-72
2023/01/06 10:55:28;;;;;;;0.80;0.57;;;;;;;17.48;49.32;98009.13;5043649;28;20446;-73
2023/01/06 10:57:57;;;;;;;0.80;0.60;;;;;;;17.55;48.58;98009.25;5035062;28;20465;-73
2023/01/06 11:00:23;;;;;;;1.10;0.57;;;;;;;17.48;48.60;98009.13;5031597;28;20946;-72
2023/01/06 11:02:54;;;;;;;0.80;0.50;;;;;;;17.29;48.31;98001.66;5045148;28;20446;-73
2023/01/06 11:05:25;;;;;;;0.83;0.50;;;;;;;16.93;48.67;98000.34;5043170;28;20433;-72
2023/01/06 11:07:57;;;;;;;0.90;0.50;;;;;;;16.77;48.87;98003.91;5048944;28;20512;-72
2023/01/06 11:10:26;;;;;;;0.90;0.60;;;;;;;16.43;49.67;97991.81;5062904;28;20456;-71
2023/01/06 11:12:52;;;;;;;1.10;0.53;;;;;;;16.06;50.11;98001.97;5050014;28;20485;-72
2023/01/06 11:15:21;;;;;;;1.20;0.60;;;;;;;16.09;50.30;98011.38;5037938;28;20430;-72
2023/01/06 11:17:47;;;;;;;0.97;0.60;;;;;;;16.08;50.67;98002.63;5029882;28;20650;-72
2023/01/06 11:20:12;;;;;;;1.27;0.70;;;;;;;15.96;51.08;98010.06;5033718;28;20520;-72
2023/01/06 11:22:40;;;;;;;1.00;0.53;;;;;;;15.88;51.16;98009.28;5037728;28;20281;-72
2023/01/06 11:25:28;;;;;;;0.80;0.50;;;;;;;15.73;50.36;98009.91;5034628;28;20253;-72
2023/01/06 11:28:11;;;;;;;0.90;0.67;;;;;;;15.55;51.38;98009.25;5033682;28;20423;-73
2023/01/06 11:30:43;;;;;;;1.00;0.80;;;;;;;15.52;51.63;98003.28;5032812;28;20422;-72
2023/01/06 11:33:16;;;;;;;1.60;0.90;;;;;;;15.45;52.02;98010.22;5032767;28;20486;-73
2023/01/06 11:35:42;;;;;;;0.90;0.60;;;;;;;15.33;52.07;98006.25;5046323;28;20423;-73
2023/01/06 11:38:12;;;;;;;0.90;0.50;;;;;;;15.18;52.56;98006.06;5032432;28;20788;-72
2023/01/06 11:40:37;;;;;;;1.87;0.70;;;;;;;15.24;52.43;98007.25;5033412;28;20422;-72
2023/01/06 11:43:14;;;;;;;1.93;0.70;;;;;;;15.28;52.49;97997.97;5035597;28;20488;-72
2023/01/06 11:45:39;;;;;;;0.90;0.60;;;;;;;15.27;52.75;98006.91;5032885;28;20187;-73
2023/01/06 11:48:11;;;;;;;0.80;0.50;;;;;;;15.30;52.59;97999.50;5033045;28;20430;-72